Time;durP1;ratioP1;P1;durP2;ratioP2;P2;SDS_P1;SDS_P2;PMS_P1;PMS_P2;Temp;Humidity;BMP_temperature;BMP_pressure;BME280_temperature;BME280_humidity;BME280_pressure;Samples;Min_cycle;Max_cycle;Signal;HPM_P1;HPM_P2
2022/01/14 00:01:51;;;;;;;9.83;6.53;;;;;;;;;;5102224;28;20277;-77
2022/01/14 00:04:18;;;;;;;9.97;6.10;;;;;;;;;;5093291;28;20686;-77
2022/01/14 00:06:47;;;;;;;10.90;6.80;;;;;;;;;;5093758;28;20231;-77
2022/01/14 00:09:15;;;;;;;10.13;6.67;;;;;;;;;;5094095;28;20637;-77
2022/01/14 00:11:47;;;;;;;9.37;6.47;;;;;;;;;;5095635;28;20267;-77
2022/01/14 00:14:22;;;;;;;9.13;6.60;;;;;;;;;;5094646;28;20255;-77
2022/01/14 00:16:49;;;;;;;11.03;7.10;;;;;;;;;;5093635;28;20196;-76
2022/01/14 00:19:17;;;;;;;11.00;7.00;;;;;;;;;;5098308;28;20285;-77
2022/01/14 00:21:45;;;;;;;10.43;7.00;;;;;;;;;;5104712;28;20221;-76
2022/01/14 00:24:24;;;;;;;12.30;7.87;;;;;;;;;;5094160;28;20685;-77
2022/01/14 00:32:29;;;;;;;11.97;7.90;;;;;;;;;;5093494;28;20718;-76
2022/01/14 00:34:57;;;;;;;11.70;7.80;;;;;;;;;;5100143;28;20196;-77
2022/01/14 00:37:24;;;;;;;12.67;8.50;;;;;;;;;;5093490;28;20296;-77
2022/01/14 00:39:52;;;;;;;13.37;8.90;;;;;;;;;;5095819;28;21037;-77
2022/01/14 00:42:20;;;;;;;13.57;8.30;;;;;;;;;;5093014;28;20297;-76
2022/01/14 00:44:47;;;;;;;13.43;8.73;;;;;;;;;;5094013;28;20233;-76
2022/01/14 00:47:14;;;;;;;13.47;8.87;;;;;;;;;;5093930;28;20221;-77
2022/01/14 00:49:41;;;;;;;14.97;9.47;;;;;;;;;;5093353;28;20292;-77
2022/01/14 00:52:09;;;;;;;14.03;8.67;;;;;;;;;;5093104;28;20288;-76
2022/01/14 00:54:36;;;;;;;13.97;9.13;;;;;;;;;;5092803;28;20289;-76
2022/01/14 00:57:26;;;;;;;13.03;8.30;;;;;;;;;;5093409;28;20305;-76
2022/01/14 00:59:52;;;;;;;13.40;8.40;;;;;;;;;;5092978;28;20213;-77
2022/01/14 01:02:20;;;;;;;13.90;8.70;;;;;;;;;;5093507;28;20616;-76
2022/01/14 01:04:49;;;;;;;15.27;9.33;;;;;;;;;;5092766;28;20229;-77
2022/01/14 01:07:17;;;;;;;15.20;9.37;;;;;;;;;;5099369;28;20236;-76
2022/01/14 01:09:49;;;;;;;13.87;9.80;;;;;;;;;;5110598;28;20296;-76
2022/01/14 01:12:31;;;;;;;14.13;8.97;;;;;;;;;;5085968;28;20205;-76
2022/01/14 01:15:05;;;;;;;14.00;9.47;;;;;;;;;;5092457;28;20204;-77
2022/01/14 01:17:33;;;;;;;16.37;9.13;;;;;;;;;;5100700;28;20200;-76
2022/01/14 01:20:00;;;;;;;15.60;9.33;;;;;;;;;;5101390;28;20244;-76
2022/01/14 01:22:28;;;;;;;15.77;9.70;;;;;;;;;;5093272;28;20293;-77
2022/01/14 01:24:55;;;;;;;15.33;9.80;;;;;;;;;;5092746;28;20292;-76
2022/01/14 01:27:24;;;;;;;16.70;9.93;;;;;;;;;;5094436;28;20223;-76
2022/01/14 01:29:56;;;;;;;21.17;10.60;;;;;;;;;;5094288;28;20205;-76
2022/01/14 01:32:23;;;;;;;16.93;10.20;;;;;;;;;;5093189;28;20197;-77
2022/01/14 01:34:50;;;;;;;15.63;9.80;;;;;;;;;;5110973;28;20300;-76
2022/01/14 01:37:18;;;;;;;17.40;9.90;;;;;;;;;;5102491;28;20225;-77
2022/01/14 01:39:46;;;;;;;16.43;10.30;;;;;;;;;;5092691;28;20233;-77
2022/01/14 01:42:13;;;;;;;15.53;10.30;;;;;;;;;;5091781;28;20288;-76
2022/01/14 01:44:43;;;;;;;17.60;10.70;;;;;;;;;;5078169;28;20240;-77
2022/01/14 01:47:11;;;;;;;17.03;10.00;;;;;;;;;;5090974;28;20194;-76
2022/01/14 01:49:39;;;;;;;17.87;11.17;;;;;;;;;;5099644;28;20227;-76
2022/01/14 01:52:08;;;;;;;20.07;10.70;;;;;;;;;;5098607;28;20250;-77
2022/01/14 01:54:35;;;;;;;16.40;10.17;;;;;;;;;;5092843;28;20284;-76
2022/01/14 01:57:03;;;;;;;20.67;10.87;;;;;;;;;;5092091;28;20226;-76
2022/01/14 01:59:31;;;;;;;18.47;10.90;;;;;;;;;;5091846;28;20291;-76
2022/01/14 02:02:01;;;;;;;16.20;10.43;;;;;;;;;;5091806;28;20238;-76
2022/01/14 02:04:28;;;;;;;17.37;11.03;;;;;;;;;;5098478;28;20703;-76
2022/01/14 02:06:56;;;;;;;18.23;10.90;;;;;;;;;;5091723;28;20281;-76
2022/01/14 02:09:24;;;;;;;18.20;11.13;;;;;;;;;;5091308;28;20323;-77
2022/01/14 02:11:51;;;;;;;18.83;10.97;;;;;;;;;;5090942;28;20286;-77
2022/01/14 02:14:40;;;;;;;17.73;11.00;;;;;;;;;;5091134;28;20720;-76
2022/01/14 02:17:32;;;;;;;18.67;10.93;;;;;;;;;;5072075;28;20212;-76
2022/01/14 02:22:51;;;;;;;20.70;12.47;;;;;;;;;;5091358;28;20203;-76
2022/01/14 02:25:28;;;;;;;19.40;11.90;;;;;;;;;;5098055;28;20294;-76
2022/01/14 02:27:56;;;;;;;20.57;11.33;;;;;;;;;;5091705;28;20601;-76
2022/01/14 02:30:25;;;;;;;20.03;11.17;;;;;;;;;;5092025;28;20200;-76
2022/01/14 02:32:52;;;;;;;20.63;12.17;;;;;;;;;;5091674;28;20291;-77
2022/01/14 02:35:21;;;;;;;21.10;12.40;;;;;;;;;;5091608;28;20303;-76
2022/01/14 02:37:48;;;;;;;23.87;12.07;;;;;;;;;;5091031;28;20284;-76
2022/01/14 02:40:16;;;;;;;22.43;12.47;;;;;;;;;;5091670;28;20290;-76
2022/01/14 02:42:44;;;;;;;20.70;12.10;;;;;;;;;;5090237;28;20293;-76
2022/01/14 02:45:12;;;;;;;23.10;13.00;;;;;;;;;;5096742;28;20232;-76
2022/01/14 02:47:40;;;;;;;21.70;12.80;;;;;;;;;;5101934;28;20222;-76
2022/01/14 02:50:09;;;;;;;22.10;12.30;;;;;;;;;;5091332;28;20238;-76
2022/01/14 02:52:53;;;;;;;22.13;12.43;;;;;;;;;;5090541;28;20249;-76
2022/01/14 02:55:23;;;;;;;23.43;12.77;;;;;;;;;;5086543;28;20676;-76
2022/01/14 02:57:51;;;;;;;22.63;13.00;;;;;;;;;;5093151;28;20199;-77
2022/01/14 03:00:20;;;;;;;22.37;12.93;;;;;;;;;;5091553;28;20627;-77
2022/01/14 03:02:48;;;;;;;21.30;12.37;;;;;;;;;;5090860;28;20236;-77
2022/01/14 03:05:17;;;;;;;21.70;13.00;;;;;;;;;;5091099;28;20289;-77
2022/01/14 03:07:46;;;;;;;23.77;12.67;;;;;;;;;;5091205;28;20274;-77
2022/01/14 03:10:15;;;;;;;24.30;13.87;;;;;;;;;;5111693;28;20249;-77
2022/01/14 03:12:42;;;;;;;24.07;13.27;;;;;;;;;;5092026;28;20235;-77
2022/01/14 03:15:10;;;;;;;26.00;13.57;;;;;;;;;;5091020;28;20233;-77
2022/01/14 03:17:37;;;;;;;28.87;15.43;;;;;;;;;;5092389;28;20196;-77
2022/01/14 03:20:06;;;;;;;27.03;15.57;;;;;;;;;;5094496;28;20236;-77
2022/01/14 03:22:34;;;;;;;28.23;15.13;;;;;;;;;;5100656;28;20229;-77
2022/01/14 03:27:48;;;;;;;24.13;14.50;;;;;;;;;;5083244;28;20254;-77
2022/01/14 03:30:15;;;;;;;25.27;14.63;;;;;;;;;;5094510;28;20281;-77
2022/01/14 03:32:43;;;;;;;25.50;13.67;;;;;;;;;;5094740;28;20237;-77
2022/01/14 03:35:10;;;;;;;27.23;14.90;;;;;;;;;;5095132;28;20283;-76
2022/01/14 03:37:38;;;;;;;23.80;13.90;;;;;;;;;;5098930;28;20207;-77
2022/01/14 03:40:08;;;;;;;25.77;14.33;;;;;;;;;;5095163;28;20303;-77
2022/01/14 03:42:35;;;;;;;21.20;13.07;;;;;;;;;;5094647;28;20245;-77
2022/01/14 03:45:02;;;;;;;23.80;14.13;;;;;;;;;;5094049;28;20618;-77
2022/01/14 03:47:30;;;;;;;23.90;14.40;;;;;;;;;;5098810;28;20201;-82
2022/01/14 03:49:57;;;;;;;23.93;14.17;;;;;;;;;;5094907;28;20309;-83
2022/01/14 03:52:24;;;;;;;25.73;14.40;;;;;;;;;;5099083;28;20202;-83
2022/01/14 03:54:51;;;;;;;24.53;13.87;;;;;;;;;;5093519;28;20200;-83
2022/01/14 03:57:20;;;;;;;24.47;14.40;;;;;;;;;;5093428;28;20242;-83
2022/01/14 03:59:47;;;;;;;24.23;13.87;;;;;;;;;;5093429;28;20278;-82
2022/01/14 04:02:14;;;;;;;26.10;14.10;;;;;;;;;;5094729;28;20234;-83
2022/01/14 04:04:42;;;;;;;27.10;14.73;;;;;;;;;;5093891;28;20637;-83
2022/01/14 04:07:09;;;;;;;26.17;15.03;;;;;;;;;;5094493;28;20249;-83
2022/01/14 04:09:37;;;;;;;25.20;14.40;;;;;;;;;;5094550;28;20307;-83
2022/01/14 04:12:06;;;;;;;25.13;14.40;;;;;;;;;;5094043;28;20206;-84
2022/01/14 04:17:21;;;;;;;28.30;14.70;;;;;;;;;;5099298;28;20209;-83
2022/01/14 04:19:48;;;;;;;26.57;14.87;;;;;;;;;;5095788;28;20281;-83
2022/01/14 04:22:16;;;;;;;26.43;14.60;;;;;;;;;;5099151;28;20286;-83
2022/01/14 04:24:43;;;;;;;28.37;15.37;;;;;;;;;;5096215;28;20230;-83
2022/01/14 04:27:10;;;;;;;31.23;16.00;;;;;;;;;;5093116;28;20230;-83
2022/01/14 04:29:39;;;;;;;28.50;16.40;;;;;;;;;;5093397;28;20314;-82
2022/01/14 04:32:06;;;;;;;29.30;15.63;;;;;;;;;;5093607;28;20236;-82
2022/01/14 04:34:33;;;;;;;26.60;15.67;;;;;;;;;;5095606;28;20211;-82
2022/01/14 04:37:00;;;;;;;30.50;16.13;;;;;;;;;;5113973;28;20752;-82
2022/01/14 04:39:28;;;;;;;27.30;15.67;;;;;;;;;;5108447;28;20723;-82
2022/01/14 04:41:55;;;;;;;28.00;16.00;;;;;;;;;;5093511;28;20455;-82
2022/01/14 04:44:23;;;;;;;26.07;15.37;;;;;;;;;;5092789;28;20262;-82
2022/01/14 04:47:14;;;;;;;25.20;14.93;;;;;;;;;;5093563;28;20578;-82
2022/01/14 04:49:41;;;;;;;27.80;15.93;;;;;;;;;;5099692;28;20313;-82
2022/01/14 04:52:09;;;;;;;32.20;15.73;;;;;;;;;;5095802;28;20647;-82
2022/01/14 04:54:36;;;;;;;28.93;15.57;;;;;;;;;;5092457;28;20284;-82
2022/01/14 04:57:04;;;;;;;28.87;15.83;;;;;;;;;;5092435;28;20274;-82
2022/01/14 04:59:31;;;;;;;26.30;14.50;;;;;;;;;;5092885;28;20278;-82
2022/01/14 05:02:00;;;;;;;27.23;14.73;;;;;;;;;;5107505;28;20202;-83
2022/01/14 05:04:28;;;;;;;27.80;15.47;;;;;;;;;;5092414;28;20194;-82
2022/01/14 05:07:01;;;;;;;29.93;15.80;;;;;;;;;;5093162;28;20196;-82
2022/01/14 05:09:34;;;;;;;27.80;14.57;;;;;;;;;;5091904;28;20218;-82
2022/01/14 05:12:07;;;;;;;26.30;14.87;;;;;;;;;;5092592;28;20202;-82
2022/01/14 05:14:35;;;;;;;30.53;16.73;;;;;;;;;;5093275;28;20205;-82
2022/01/14 05:17:04;;;;;;;29.70;15.33;;;;;;;;;;5093894;28;20205;-82
2022/01/14 05:19:31;;;;;;;27.00;15.70;;;;;;;;;;5092631;28;20267;-82
2022/01/14 05:21:59;;;;;;;26.07;14.80;;;;;;;;;;5096777;28;20281;-82
2022/01/14 05:24:26;;;;;;;27.73;14.77;;;;;;;;;;5100286;28;20284;-82
2022/01/14 05:26:53;;;;;;;29.03;16.53;;;;;;;;;;5111695;28;20361;-82
2022/01/14 05:29:20;;;;;;;25.37;14.63;;;;;;;;;;5104898;28;20265;-82
2022/01/14 05:31:49;;;;;;;27.63;15.60;;;;;;;;;;5092156;28;20286;-82
2022/01/14 05:34:18;;;;;;;28.80;15.23;;;;;;;;;;5093021;28;20210;-82
2022/01/14 05:36:46;;;;;;;26.67;15.00;;;;;;;;;;5092549;28;20615;-82
2022/01/14 05:39:13;;;;;;;31.47;17.27;;;;;;;;;;5093871;28;20293;-82
2022/01/14 05:41:40;;;;;;;30.97;17.50;;;;;;;;;;5095821;28;20606;-82
2022/01/14 05:44:08;;;;;;;30.93;16.07;;;;;;;;;;5100153;28;20301;-82
2022/01/14 05:46:35;;;;;;;31.47;16.53;;;;;;;;;;5099755;28;20310;-82
2022/01/14 05:49:03;;;;;;;28.43;16.10;;;;;;;;;;5093051;28;20373;-82
2022/01/14 05:51:31;;;;;;;33.70;17.90;;;;;;;;;;5091083;28;20198;-83
2022/01/14 05:53:58;;;;;;;30.47;16.70;;;;;;;;;;5098052;28;20213;-82
2022/01/14 05:56:26;;;;;;;29.33;16.30;;;;;;;;;;5093167;28;20253;-83
2022/01/14 05:58:53;;;;;;;27.47;15.37;;;;;;;;;;5100405;28;20278;-82
2022/01/14 06:01:21;;;;;;;26.87;14.27;;;;;;;;;;5091721;28;20285;-83
2022/01/14 06:03:49;;;;;;;29.83;14.57;;;;;;;;;;5092150;28;20209;-83
2022/01/14 06:06:16;;;;;;;27.83;15.07;;;;;;;;;;5092506;28;20626;-81
2022/01/14 06:08:48;;;;;;;28.27;14.80;;;;;;;;;;5091511;28;20652;-82
2022/01/14 06:11:15;;;;;;;29.60;16.40;;;;;;;;;;5093548;28;20219;-84
2022/01/14 06:13:43;;;;;;;33.67;16.57;;;;;;;;;;5101414;28;20750;-83
2022/01/14 06:16:10;;;;;;;29.10;15.50;;;;;;;;;;5090772;28;20288;-82
2022/01/14 06:18:38;;;;;;;31.67;16.97;;;;;;;;;;5091361;28;20293;-83
2022/01/14 06:21:06;;;;;;;36.87;19.30;;;;;;;;;;5091908;28;20383;-83
2022/01/14 06:23:33;;;;;;;44.40;24.53;;;;;;;;;;5098819;28;20281;-82
2022/01/14 06:26:02;;;;;;;47.17;25.77;;;;;;;;;;5101086;28;20329;-84
2022/01/14 06:28:29;;;;;;;48.60;28.53;;;;;;;;;;5090745;28;20285;-84
2022/01/14 06:30:57;;;;;;;35.80;18.63;;;;;;;;;;5091318;28;20193;-82
2022/01/14 06:33:24;;;;;;;59.20;31.30;;;;;;;;;;5090860;28;20287;-83
2022/01/14 06:35:51;;;;;;;51.80;28.40;;;;;;;;;;5090333;28;20658;-82
2022/01/14 06:38:19;;;;;;;48.47;26.57;;;;;;;;;;5090391;28;20639;-83
2022/01/14 06:40:46;;;;;;;47.27;26.07;;;;;;;;;;5090604;28;20325;-83
2022/01/14 06:43:15;;;;;;;44.17;24.13;;;;;;;;;;5090248;28;20197;-80
2022/01/14 06:45:43;;;;;;;44.33;24.33;;;;;;;;;;5090978;28;20298;-82
2022/01/14 06:48:10;;;;;;;43.10;25.23;;;;;;;;;;5091343;28;20750;-82
2022/01/14 06:50:38;;;;;;;44.77;27.17;;;;;;;;;;5095525;28;20303;-83
2022/01/14 06:53:05;;;;;;;39.60;21.53;;;;;;;;;;5098644;28;20317;-81
2022/01/14 06:55:32;;;;;;;38.93;21.60;;;;;;;;;;5099477;28;20656;-81
2022/01/14 06:58:00;;;;;;;37.90;20.23;;;;;;;;;;5098000;28;20284;-80
2022/01/14 07:00:29;;;;;;;33.80;19.23;;;;;;;;;;5097197;28;20282;-81
2022/01/14 07:02:56;;;;;;;35.30;18.90;;;;;;;;;;5097331;28;20197;-80
2022/01/14 07:05:23;;;;;;;34.67;18.60;;;;;;;;;;5097560;28;20665;-80
2022/01/14 07:07:50;;;;;;;35.47;19.30;;;;;;;;;;5096864;28;20262;-81
2022/01/14 07:10:18;;;;;;;32.70;18.30;;;;;;;;;;5095360;28;20321;-81
2022/01/14 07:12:45;;;;;;;34.47;18.13;;;;;;;;;;5098097;28;20373;-80
2022/01/14 07:15:14;;;;;;;32.73;18.70;;;;;;;;;;5097813;28;20296;-80
2022/01/14 07:17:43;;;;;;;32.70;17.23;;;;;;;;;;5097353;28;20285;-80
2022/01/14 07:20:13;;;;;;;33.03;16.73;;;;;;;;;;5097648;28;20237;-81
2022/01/14 07:22:40;;;;;;;31.27;17.23;;;;;;;;;;5098591;28;20204;-81
2022/01/14 07:25:08;;;;;;;32.37;16.97;;;;;;;;;;5101616;28;20210;-81
2022/01/14 07:27:35;;;;;;;32.83;17.17;;;;;;;;;;5097852;28;20201;-80
2022/01/14 07:30:04;;;;;;;29.70;15.70;;;;;;;;;;5097900;28;20257;-80
2022/01/14 07:32:31;;;;;;;28.63;15.87;;;;;;;;;;5097488;28;20643;-81
2022/01/14 07:35:01;;;;;;;31.53;15.97;;;;;;;;;;5098038;28;20292;-81
2022/01/14 07:37:29;;;;;;;29.27;15.53;;;;;;;;;;5076982;28;20705;-80
2022/01/14 07:39:56;;;;;;;36.07;17.40;;;;;;;;;;5096907;28;20239;-80
2022/01/14 07:42:23;;;;;;;33.77;17.40;;;;;;;;;;5097204;28;20280;-81
2022/01/14 07:44:51;;;;;;;32.13;16.07;;;;;;;;;;5097485;28;20313;-80
2022/01/14 07:47:19;;;;;;;37.07;16.83;;;;;;;;;;5097424;28;20715;-80
2022/01/14 07:49:46;;;;;;;32.47;16.70;;;;;;;;;;5096972;28;20311;-80
2022/01/14 07:52:15;;;;;;;31.17;17.10;;;;;;;;;;5096225;28;20673;-81
2022/01/14 07:54:42;;;;;;;33.97;17.33;;;;;;;;;;5100560;28;20259;-80
2022/01/14 07:57:10;;;;;;;35.67;17.67;;;;;;;;;;5098485;28;20309;-80
2022/01/14 07:59:37;;;;;;;35.57;18.20;;;;;;;;;;5095858;28;20651;-80
2022/01/14 08:02:05;;;;;;;33.13;17.67;;;;;;;;;;5095606;28;20209;-80
2022/01/14 08:04:35;;;;;;;35.90;18.50;;;;;;;;;;5091868;28;20233;-80
2022/01/14 08:07:09;;;;;;;30.93;16.73;;;;;;;;;;5093541;28;21030;-80
2022/01/14 08:09:39;;;;;;;33.27;17.67;;;;;;;;;;5092608;28;20253;-81
2022/01/14 08:12:06;;;;;;;35.47;19.53;;;;;;;;;;5092113;28;20288;-80
2022/01/14 08:14:33;;;;;;;35.80;19.13;;;;;;;;;;5093907;28;20252;-80
2022/01/14 08:17:01;;;;;;;35.53;19.13;;;;;;;;;;5093346;28;20609;-74
2022/01/14 08:19:32;;;;;;;35.57;19.10;;;;;;;;;;5093789;28;20747;-74
2022/01/14 08:22:00;;;;;;;37.10;19.47;;;;;;;;;;5093260;28;20194;-76
2022/01/14 08:24:27;;;;;;;39.63;22.23;;;;;;;;;;5093478;28;20644;-76
2022/01/14 08:26:55;;;;;;;37.63;20.63;;;;;;;;;;5093863;28;20278;-76
2022/01/14 08:29:23;;;;;;;32.80;19.57;;;;;;;;;;5093732;28;20705;-76
2022/01/14 08:31:50;;;;;;;32.83;18.23;;;;;;;;;;5093426;28;20281;-76
2022/01/14 08:34:17;;;;;;;34.53;18.03;;;;;;;;;;5092650;28;20230;-76
2022/01/14 08:36:45;;;;;;;37.30;18.43;;;;;;;;;;5092658;28;20205;-76
2022/01/14 08:39:12;;;;;;;36.83;19.07;;;;;;;;;;5092835;28;20583;-76
2022/01/14 08:41:39;;;;;;;41.13;20.43;;;;;;;;;;5092794;28;20194;-76
2022/01/14 08:44:08;;;;;;;49.67;22.03;;;;;;;;;;5092583;28;20312;-76
2022/01/14 08:46:35;;;;;;;58.17;22.90;;;;;;;;;;5092579;28;20615;-76
2022/01/14 08:49:02;;;;;;;57.53;23.40;;;;;;;;;;5092563;28;20190;-76
2022/01/14 08:51:30;;;;;;;57.53;23.17;;;;;;;;;;5092224;28;20758;-76
2022/01/14 08:54:02;;;;;;;61.03;24.27;;;;;;;;;;5092422;28;20248;-76
2022/01/14 08:56:29;;;;;;;50.13;22.57;;;;;;;;;;5090837;28;20271;-76
2022/01/14 08:58:56;;;;;;;53.63;23.03;;;;;;;;;;5092509;28;20285;-76
2022/01/14 09:01:25;;;;;;;54.60;23.97;;;;;;;;;;5092664;28;20288;-76
2022/01/14 09:03:53;;;;;;;57.90;23.03;;;;;;;;;;5089117;28;20770;-76
2022/01/14 09:06:20;;;;;;;53.63;23.90;;;;;;;;;;5092393;28;20194;-76
2022/01/14 09:08:48;;;;;;;54.63;24.07;;;;;;;;;;5092112;28;20230;-76
2022/01/14 09:11:15;;;;;;;56.83;24.63;;;;;;;;;;5092366;28;20868;-76
2022/01/14 09:13:42;;;;;;;62.37;27.13;;;;;;;;;;5092011;28;20290;-76
2022/01/14 09:16:09;;;;;;;50.33;24.20;;;;;;;;;;5091025;28;20384;-76
2022/01/14 09:18:38;;;;;;;55.47;25.30;;;;;;;;;;5091480;28;20282;-76
2022/01/14 09:21:05;;;;;;;53.37;26.10;;;;;;;;;;5092262;28;20278;-76
2022/01/14 09:23:34;;;;;;;52.43;25.83;;;;;;;;;;5092237;28;20563;-76
2022/01/14 09:26:01;;;;;;;53.77;25.27;;;;;;;;;;5091863;28;20204;-76
2022/01/14 09:28:29;;;;;;;52.60;25.30;;;;;;;;;;5091778;28;20233;-76
2022/01/14 09:30:56;;;;;;;49.17;23.97;;;;;;;;;;5090800;28;20218;-76
2022/01/14 09:33:23;;;;;;;39.17;20.20;;;;;;;;;;5091677;28;20238;-76
2022/01/14 09:35:53;;;;;;;43.17;22.10;;;;;;;;;;5091356;28;20277;-76
2022/01/14 09:38:21;;;;;;;43.37;22.60;;;;;;;;;;5089130;28;20233;-76
2022/01/14 09:40:50;;;;;;;42.60;22.17;;;;;;;;;;5091594;28;20196;-76
2022/01/14 09:43:17;;;;;;;38.40;21.33;;;;;;;;;;5073800;28;20228;-76
2022/01/14 09:45:45;;;;;;;40.97;22.47;;;;;;;;;;5091605;28;20316;-76
2022/01/14 09:48:15;;;;;;;39.87;21.53;;;;;;;;;;5091129;28;20279;-76
2022/01/14 09:50:43;;;;;;;41.43;21.57;;;;;;;;;;5091893;28;20227;-76
2022/01/14 09:53:13;;;;;;;37.23;20.80;;;;;;;;;;5089367;28;20302;-76
2022/01/14 09:55:40;;;;;;;36.27;21.03;;;;;;;;;;5092306;28;20261;-76
2022/01/14 09:58:07;;;;;;;40.03;20.33;;;;;;;;;;5092647;28;20286;-76
2022/01/14 10:00:35;;;;;;;45.03;21.90;;;;;;;;;;5092290;28;20286;-76
2022/01/14 10:03:02;;;;;;;43.03;23.10;;;;;;;;;;5091947;28;20711;-76
2022/01/14 10:05:34;;;;;;;44.50;24.67;;;;;;;;;;5090951;28;20202;-76
2022/01/14 10:08:18;;;;;;;47.60;26.00;;;;;;;;;;5089095;28;20689;-76
2022/01/14 10:10:47;;;;;;;38.57;19.83;;;;;;;;;;5089548;28;20237;-76
2022/01/14 10:13:15;;;;;;;38.70;19.47;;;;;;;;;;5090639;28;20201;-76
2022/01/14 10:15:47;;;;;;;39.90;20.33;;;;;;;;;;5090964;28;20242;-76
2022/01/14 10:18:15;;;;;;;39.57;22.03;;;;;;;;;;5090769;28;20197;-76
2022/01/14 10:20:42;;;;;;;36.77;20.97;;;;;;;;;;5090698;28;20855;-76
2022/01/14 10:23:12;;;;;;;34.87;18.70;;;;;;;;;;5091008;28;20216;-76
2022/01/14 10:25:41;;;;;;;37.33;20.13;;;;;;;;;;5088278;28;20224;-76
2022/01/14 10:28:19;;;;;;;36.27;19.47;;;;;;;;;;5090661;28;20190;-76
2022/01/14 10:30:48;;;;;;;33.53;18.57;;;;;;;;;;5085942;28;20226;-76
2022/01/14 10:33:15;;;;;;;37.63;20.07;;;;;;;;;;5091620;28;20206;-76
2022/01/14 10:35:43;;;;;;;35.97;19.70;;;;;;;;;;4730317;28;9999691;-76
2022/01/14 10:38:11;;;;;;;35.07;19.53;;;;;;;;;;5088278;28;20229;-76
2022/01/14 10:40:43;;;;;;;33.00;18.33;;;;;;;;;;5088115;28;20300;-76
2022/01/14 10:43:15;;;;;;;37.30;20.03;;;;;;;;;;5085698;28;20287;-76
2022/01/14 10:45:43;;;;;;;37.47;20.53;;;;;;;;;;5087327;28;20738;-75
2022/01/14 10:48:12;;;;;;;35.07;19.67;;;;;;;;;;5087994;28;20584;-76
2022/01/14 10:50:40;;;;;;;35.63;20.70;;;;;;;;;;5088136;28;20213;-76
2022/01/14 10:53:09;;;;;;;33.97;19.30;;;;;;;;;;5087954;28;20215;-76
2022/01/14 10:55:37;;;;;;;40.40;21.43;;;;;;;;;;5087882;28;20320;-76
2022/01/14 10:58:06;;;;;;;37.23;20.20;;;;;;;;;;5088308;28;20295;-76
2022/01/14 11:00:41;;;;;;;40.30;21.40;;;;;;;;;;5088507;28;20667;-76
2022/01/14 11:03:08;;;;;;;36.43;20.40;;;;;;;;;;5088406;28;20313;-76
2022/01/14 11:05:36;;;;;;;32.57;18.67;;;;;;;;;;5089088;28;20299;-76
2022/01/14 11:08:04;;;;;;;34.80;20.07;;;;;;;;;;5088436;28;20291;-77
2022/01/14 11:10:33;;;;;;;33.00;19.07;;;;;;;;;;4735807;28;10000546;-76
2022/01/14 11:13:01;;;;;;;33.37;18.97;;;;;;;;;;5088515;28;20222;-76
2022/01/14 11:15:29;;;;;;;32.30;18.87;;;;;;;;;;5088600;28;20209;-76
2022/01/14 11:18:01;;;;;;;31.07;16.77;;;;;;;;;;5088995;28;20407;-76
2022/01/14 11:20:31;;;;;;;31.67;17.97;;;;;;;;;;5088641;28;20199;-76
2022/01/14 11:23:16;;;;;;;32.87;17.73;;;;;;;;;;5088322;28;20574;-76
2022/01/14 11:25:46;;;;;;;31.73;17.63;;;;;;;;;;5088552;28;20773;-76
2022/01/14 11:28:15;;;;;;;31.90;17.63;;;;;;;;;;5088676;28;20295;-76
2022/01/14 11:30:42;;;;;;;32.97;18.23;;;;;;;;;;5088021;28;20338;-76
2022/01/14 11:33:11;;;;;;;34.50;17.93;;;;;;;;;;5088162;28;20292;-76
2022/01/14 11:35:39;;;;;;;32.60;18.40;;;;;;;;;;5078001;28;20205;-76
2022/01/14 11:38:21;;;;;;;35.23;18.40;;;;;;;;;;5085636;28;20303;-76
2022/01/14 11:40:49;;;;;;;33.40;17.77;;;;;;;;;;5092286;28;20287;-76
2022/01/14 11:43:31;;;;;;;36.77;19.50;;;;;;;;;;5091822;28;20242;-76
2022/01/14 11:45:59;;;;;;;36.77;18.03;;;;;;;;;;5091235;28;20283;-76
2022/01/14 11:48:36;;;;;;;35.87;17.77;;;;;;;;;;5083887;28;20236;-74
2022/01/14 11:51:05;;;;;;;33.83;19.40;;;;;;;;;;5071490;28;20779;-74
2022/01/14 11:53:37;;;;;;;36.27;18.13;;;;;;;;;;5073817;28;20241;-75
2022/01/14 11:56:04;;;;;;;38.73;19.33;;;;;;;;;;5092133;28;20224;-74
2022/01/14 11:58:32;;;;;;;37.27;20.00;;;;;;;;;;5091125;28;20294;-74
2022/01/14 12:00:59;;;;;;;38.00;19.37;;;;;;;;;;5092366;28;20940;-75
2022/01/14 12:03:29;;;;;;;41.87;20.73;;;;;;;;;;5071982;28;20210;-75
2022/01/14 12:06:10;;;;;;;41.40;21.13;;;;;;;;;;5079762;28;20204;-74
2022/01/14 12:08:39;;;;;;;41.03;20.73;;;;;;;;;;5091510;28;20242;-75
2022/01/14 12:11:20;;;;;;;44.00;20.83;;;;;;;;;;5089669;28;20251;-74
2022/01/14 12:14:01;;;;;;;45.33;22.37;;;;;;;;;;5091313;28;20209;-75
2022/01/14 12:25:49;;;;;;;43.97;21.20;;;;;;;;;;5036949;28;20209;-74
2022/01/14 12:28:19;;;;;;;43.23;21.87;;;;;;;;;;5038651;28;20572;-74
2022/01/14 12:30:57;;;;;;;43.73;22.63;;;;;;;;;;5040300;28;20307;-74
2022/01/14 12:33:40;;;;;;;46.43;22.30;;;;;;;;;;5042781;28;20252;-74
2022/01/14 12:36:11;;;;;;;52.13;24.40;;;;;;;;;;5051378;28;20428;-74
2022/01/14 12:38:40;;;;;;;45.43;23.70;;;;;;;;;;5051183;28;20326;-74
2022/01/14 12:41:15;;;;;;;43.13;22.03;;;;;;;;;;5040689;28;20285;-74
2022/01/14 12:43:49;;;;;;;43.43;21.00;;;;;;;;;;5037543;28;20326;-74
2022/01/14 12:46:34;;;;;;;42.90;21.07;;;;;;;;;;5030337;28;20289;-74
2022/01/14 12:49:03;;;;;;;41.87;20.80;;;;;;;;;;5033523;28;20204;-74
2022/01/14 12:51:31;;;;;;;41.93;20.23;;;;;;;;;;5089449;28;20258;-74
2022/01/14 12:54:01;;;;;;;40.00;20.47;;;;;;;;;;5092615;28;20207;-74
2022/01/14 12:56:30;;;;;;;43.33;20.60;;;;;;;;;;5092202;28;20689;-74
2022/01/14 12:59:02;;;;;;;44.00;19.77;;;;;;;;;;5092068;28;20291;-74
2022/01/14 13:01:31;;;;;;;41.13;18.73;;;;;;;;;;5092502;28;20195;-74
2022/01/14 13:04:00;;;;;;;40.83;20.87;;;;;;;;;;5092050;28;20282;-74
2022/01/14 13:06:28;;;;;;;41.40;20.23;;;;;;;;;;5092040;28;20692;-74
2022/01/14 13:08:57;;;;;;;37.83;18.97;;;;;;;;;;5091820;28;20293;-74
2022/01/14 13:11:24;;;;;;;41.17;20.60;;;;;;;;;;5091834;28;20223;-74
2022/01/14 13:14:05;;;;;;;38.80;20.13;;;;;;;;;;5089111;28;20205;-74
2022/01/14 13:16:45;;;;;;;37.70;19.93;;;;;;;;;;5089372;28;20206;-74
2022/01/14 13:19:23;;;;;;;34.13;18.40;;;;;;;;;;5089002;28;20243;-74
2022/01/14 13:21:50;;;;;;;38.97;19.43;;;;;;;;;;5091172;28;20278;-74
2022/01/14 13:24:22;;;;;;;39.07;19.70;;;;;;;;;;5091110;28;20219;-74
2022/01/14 13:27:04;;;;;;;38.30;19.87;;;;;;;;;;5091004;28;20192;-74
2022/01/14 13:29:41;;;;;;;37.00;18.60;;;;;;;;;;5091273;28;20286;-80
2022/01/14 13:32:09;;;;;;;34.33;17.73;;;;;;;;;;5092231;28;20258;-80
2022/01/14 13:34:37;;;;;;;36.20;18.77;;;;;;;;;;5092456;28;20227;-80
2022/01/14 13:37:05;;;;;;;38.63;19.37;;;;;;;;;;5092502;28;20231;-80
2022/01/14 13:39:32;;;;;;;36.17;19.23;;;;;;;;;;5092166;28;20242;-80
2022/01/14 13:41:59;;;;;;;39.37;19.23;;;;;;;;;;5092393;28;20192;-80
2022/01/14 13:44:32;;;;;;;38.63;19.37;;;;;;;;;;5092496;28;20250;-81
2022/01/14 13:47:06;;;;;;;37.13;18.57;;;;;;;;;;5093074;28;20215;-80
2022/01/14 13:49:34;;;;;;;37.97;18.70;;;;;;;;;;5092405;28;20204;-80
2022/01/14 13:52:08;;;;;;;38.47;19.80;;;;;;;;;;5092849;28;20315;-80
2022/01/14 13:54:35;;;;;;;39.93;19.97;;;;;;;;;;5091873;28;20214;-80
2022/01/14 13:57:09;;;;;;;37.63;18.87;;;;;;;;;;5092369;28;20569;-80
2022/01/14 13:59:37;;;;;;;39.20;19.87;;;;;;;;;;5092178;28;20663;-80
2022/01/14 14:02:08;;;;;;;39.73;21.43;;;;;;;;;;5091991;28;20611;-80
2022/01/14 14:04:42;;;;;;;40.70;21.23;;;;;;;;;;5078647;28;20255;-80
2022/01/14 14:07:12;;;;;;;43.67;21.97;;;;;;;;;;5092542;28;20204;-79
2022/01/14 14:09:46;;;;;;;44.27;22.40;;;;;;;;;;5091369;28;20206;-80
2022/01/14 14:12:26;;;;;;;43.13;21.70;;;;;;;;;;5092200;28;20228;-80
2022/01/14 14:17:40;;;;;;;41.77;21.70;;;;;;;;;;5092910;28;20204;-80
2022/01/14 14:20:08;;;;;;;38.87;19.07;;;;;;;;;;5091975;28;20206;-81
2022/01/14 14:22:37;;;;;;;38.63;19.97;;;;;;;;;;5091875;28;20275;-80
2022/01/14 14:25:07;;;;;;;38.30;19.77;;;;;;;;;;5092089;28;20693;-80
2022/01/14 14:27:35;;;;;;;36.40;18.70;;;;;;;;;;5092544;28;20227;-81
2022/01/14 14:30:05;;;;;;;38.17;19.67;;;;;;;;;;5092240;28;20287;-80
2022/01/14 14:32:37;;;;;;;38.63;18.67;;;;;;;;;;5091186;28;20220;-81
2022/01/14 14:35:07;;;;;;;41.13;20.43;;;;;;;;;;5072846;28;20260;-80
2022/01/14 14:37:37;;;;;;;39.30;19.53;;;;;;;;;;5091313;28;20231;-80
2022/01/14 14:40:07;;;;;;;37.63;19.20;;;;;;;;;;5091572;28;20207;-80
2022/01/14 14:42:35;;;;;;;44.50;21.40;;;;;;;;;;5091577;28;20199;-80
2022/01/14 14:45:02;;;;;;;44.93;21.27;;;;;;;;;;5091345;28;20318;-81
2022/01/14 14:47:29;;;;;;;43.50;22.40;;;;;;;;;;5091543;28;20227;-81
2022/01/14 14:49:57;;;;;;;39.07;18.53;;;;;;;;;;5091765;28;20291;-80
2022/01/14 14:52:26;;;;;;;39.93;20.10;;;;;;;;;;5090814;28;20215;-80
2022/01/14 14:54:53;;;;;;;41.77;19.90;;;;;;;;;;5090971;28;20583;-80
2022/01/14 14:57:21;;;;;;;39.43;19.80;;;;;;;;;;5091778;28;20251;-80